YS404P MMCZ-MMUN
Flight info
| Callsign | YS404P |
|---|---|
| Flight time | 0h 27m |
| Altitude | 3000 |
| Route | MMCZ/12 DCT LIDEK DCT MMUN/LIDEK I12LY |
| Aircraft | C172/L-SFG/C |
Departure
| Time | 2026-04-30 03:01 |
|---|---|
| Airport | Cozumel International Airport (MMCZ) |
Arrival
| Time | 2026-04-30 03:28 |
|---|---|
| Airport | Cancún International Airport (MMUN) |
| Time | Latitude | Longitude | Altitude | Speed | Heading |
|---|---|---|---|---|---|
| 2026-04-30 02:43 | 20.51311 | -86.93227 | 15 ft | 0 kts | 67° |
| 2026-04-30 02:57 | 20.51312 | -86.93226 | 15 ft | 2 kts | 73° |
| 2026-04-30 02:57 | 20.51327 | -86.93188 | 16 ft | 7 kts | 46° |
| 2026-04-30 02:58 | 20.51329 | -86.93135 | 16 ft | 13 kts | 119° |
| 2026-04-30 02:58 | 20.51303 | -86.93082 | 16 ft | 1 kts | 115° |
| 2026-04-30 02:58 | 20.51325 | -86.93046 | 16 ft | 13 kts | 31° |
| 2026-04-30 02:58 | 20.51442 | -86.93064 | 16 ft | 22 kts | 324° |
| 2026-04-30 02:59 | 20.51546 | -86.93141 | 16 ft | 12 kts | 328° |
| 2026-04-30 02:59 | 20.51634 | -86.93201 | 15 ft | 13 kts | 341° |
| 2026-04-30 02:59 | 20.51657 | -86.93235 | 15 ft | 2 kts | 125° |
| 2026-04-30 02:59 | 20.51655 | -86.93222 | 15 ft | 0 kts | 105° |
| 2026-04-30 03:00 | 20.51655 | -86.93221 | 15 ft | 1 kts | 105° |
| 2026-04-30 03:00 | 20.51585 | -86.93058 | 16 ft | 48 kts | 117° |
| 2026-04-30 03:00 | 20.51398 | -86.92620 | 100 ft | 71 kts | 115° |
| 2026-04-30 03:01 | 20.51186 | -86.92161 | 302 ft | 71 kts | 118° |
| 2026-04-30 03:01 | 20.50975 | -86.91711 | 485 ft | 66 kts | 112° |
| 2026-04-30 03:01 | 20.50758 | -86.91265 | 704 ft | 71 kts | 107° |
| 2026-04-30 03:01 | 20.50834 | -86.90809 | 966 ft | 70 kts | 55° |
| 2026-04-30 03:02 | 20.51364 | -86.90673 | 990 ft | 96 kts | 356° |
| 2026-04-30 03:02 | 20.52017 | -86.90856 | 1206 ft | 89 kts | 354° |
| 2026-04-30 03:02 | 20.52626 | -86.90945 | 1368 ft | 94 kts | 356° |
| 2026-04-30 03:02 | 20.53253 | -86.91034 | 1595 ft | 91 kts | 3° |
| 2026-04-30 03:03 | 20.53863 | -86.90995 | 1814 ft | 86 kts | 11° |
| 2026-04-30 03:03 | 20.54978 | -86.90855 | 2212 ft | 80 kts | 14° |
| 2026-04-30 03:03 | 20.55535 | -86.90788 | 2383 ft | 83 kts | 13° |
| 2026-04-30 03:04 | 20.56120 | -86.90723 | 2551 ft | 85 kts | 12° |
| 2026-04-30 03:04 | 20.56715 | -86.90662 | 2726 ft | 87 kts | 11° |
| 2026-04-30 03:04 | 20.57321 | -86.90603 | 2897 ft | 88 kts | 12° |
| 2026-04-30 03:04 | 20.57957 | -86.90538 | 3000 ft | 100 kts | 12° |
| 2026-04-30 03:05 | 20.58712 | -86.90461 | 3009 ft | 116 kts | 10° |
| 2026-04-30 03:05 | 20.59544 | -86.90382 | 3012 ft | 123 kts | 10° |
| 2026-04-30 03:05 | 20.60407 | -86.90300 | 3006 ft | 126 kts | 9° |
| 2026-04-30 03:05 | 20.61276 | -86.90220 | 3008 ft | 125 kts | 10° |
| 2026-04-30 03:06 | 20.62148 | -86.90138 | 3004 ft | 126 kts | 9° |
| 2026-04-30 03:06 | 20.63017 | -86.90058 | 3009 ft | 125 kts | 10° |
| 2026-04-30 03:06 | 20.63869 | -86.89978 | 3004 ft | 125 kts | 10° |
| 2026-04-30 03:06 | 20.64731 | -86.89898 | 3006 ft | 124 kts | 9° |
| 2026-04-30 03:07 | 20.65591 | -86.89818 | 3005 ft | 124 kts | 10° |
| 2026-04-30 03:07 | 20.66454 | -86.89737 | 3004 ft | 125 kts | 10° |
| 2026-04-30 03:07 | 20.67325 | -86.89655 | 3008 ft | 128 kts | 10° |
| 2026-04-30 03:07 | 20.68221 | -86.89571 | 3003 ft | 131 kts | 10° |
| 2026-04-30 03:08 | 20.69128 | -86.89486 | 3010 ft | 131 kts | 9° |
| 2026-04-30 03:08 | 20.70041 | -86.89402 | 3010 ft | 132 kts | 9° |
| 2026-04-30 03:08 | 20.70940 | -86.89318 | 3011 ft | 131 kts | 9° |
| 2026-04-30 03:08 | 20.71850 | -86.89233 | 3012 ft | 131 kts | 9° |
| 2026-04-30 03:09 | 20.72761 | -86.89148 | 3008 ft | 132 kts | 9° |
| 2026-04-30 03:09 | 20.73675 | -86.89062 | 3007 ft | 132 kts | 9° |
| 2026-04-30 03:09 | 20.74590 | -86.88977 | 3009 ft | 133 kts | 9° |
| 2026-04-30 03:09 | 20.75513 | -86.88890 | 3006 ft | 133 kts | 9° |
| 2026-04-30 03:10 | 20.76429 | -86.88809 | 3003 ft | 129 kts | 9° |
| 2026-04-30 03:10 | 20.77291 | -86.88739 | 2995 ft | 120 kts | 9° |
| 2026-04-30 03:10 | 20.78113 | -86.88681 | 2994 ft | 117 kts | 9° |
| 2026-04-30 03:10 | 20.78915 | -86.88633 | 3003 ft | 114 kts | 8° |
| 2026-04-30 03:11 | 20.79690 | -86.88593 | 3002 ft | 112 kts | 7° |
| 2026-04-30 03:11 | 20.80466 | -86.88557 | 3002 ft | 111 kts | 8° |
| 2026-04-30 03:11 | 20.81228 | -86.88502 | 3005 ft | 109 kts | 4° |
| 2026-04-30 03:11 | 20.81935 | -86.88819 | 3004 ft | 113 kts | 330° |
| 2026-04-30 03:12 | 20.82611 | -86.89245 | 3004 ft | 113 kts | 333° |
| 2026-04-30 03:12 | 20.83256 | -86.89726 | 3003 ft | 115 kts | 320° |
| 2026-04-30 03:12 | 20.83816 | -86.90338 | 3007 ft | 117 kts | 308° |
| 2026-04-30 03:12 | 20.84285 | -86.91058 | 3011 ft | 119 kts | 306° |
| 2026-04-30 03:13 | 20.84760 | -86.91785 | 3017 ft | 119 kts | 305° |
| 2026-04-30 03:13 | 20.85181 | -86.92538 | 3010 ft | 120 kts | 297° |
| 2026-04-30 03:13 | 20.85526 | -86.93348 | 3025 ft | 122 kts | 292° |
| 2026-04-30 03:13 | 20.85900 | -86.94158 | 3019 ft | 121 kts | 298° |
| 2026-04-30 03:14 | 20.86333 | -86.94930 | 3014 ft | 121 kts | 301° |
| 2026-04-30 03:14 | 20.86765 | -86.95697 | 3012 ft | 120 kts | 298° |
| 2026-04-30 03:14 | 20.87162 | -86.96479 | 3010 ft | 119 kts | 301° |
| 2026-04-30 03:14 | 20.87644 | -86.97195 | 3009 ft | 119 kts | 306° |
| 2026-04-30 03:15 | 20.88131 | -86.97909 | 3014 ft | 119 kts | 306° |
| 2026-04-30 03:15 | 20.88618 | -86.98625 | 3011 ft | 119 kts | 307° |
| 2026-04-30 03:15 | 20.89170 | -86.99258 | 3012 ft | 118 kts | 317° |
| 2026-04-30 03:15 | 20.89767 | -86.99876 | 3012 ft | 124 kts | 317° |
| 2026-04-30 03:16 | 20.90412 | -87.00541 | 3023 ft | 132 kts | 317° |
| 2026-04-30 03:16 | 20.91146 | -87.01147 | 3022 ft | 135 kts | 328° |
| 2026-04-30 03:16 | 20.91921 | -87.01721 | 3019 ft | 136 kts | 327° |
| 2026-04-30 03:16 | 20.92702 | -87.02299 | 3020 ft | 137 kts | 328° |
| 2026-04-30 03:17 | 20.93539 | -87.02784 | 3018 ft | 137 kts | 338° |
| 2026-04-30 03:17 | 20.94402 | -87.03226 | 3018 ft | 137 kts | 337° |
| 2026-04-30 03:17 | 20.95265 | -87.03668 | 3019 ft | 138 kts | 337° |
| 2026-04-30 03:17 | 20.96117 | -87.04102 | 3017 ft | 137 kts | 337° |
| 2026-04-30 03:18 | 20.97008 | -87.04437 | 3020 ft | 135 kts | 347° |
| 2026-04-30 03:18 | 20.97914 | -87.04715 | 3017 ft | 136 kts | 347° |
| 2026-04-30 03:18 | 20.98823 | -87.04996 | 3019 ft | 136 kts | 347° |
| 2026-04-30 03:18 | 20.99742 | -87.05197 | 3019 ft | 134 kts | 357° |
| 2026-04-30 03:19 | 21.00673 | -87.05308 | 3017 ft | 133 kts | 357° |
| 2026-04-30 03:19 | 21.01572 | -87.05422 | 3007 ft | 129 kts | 357° |
| 2026-04-30 03:19 | 21.02466 | -87.05538 | 2951 ft | 130 kts | 357° |
| 2026-04-30 03:19 | 21.03355 | -87.05564 | 2898 ft | 127 kts | 7° |
| 2026-04-30 03:20 | 21.04229 | -87.05519 | 2850 ft | 128 kts | 7° |
| 2026-04-30 03:20 | 21.05115 | -87.05454 | 2799 ft | 127 kts | 14° |
| 2026-04-30 03:20 | 21.05971 | -87.05261 | 2758 ft | 126 kts | 17° |
| 2026-04-30 03:20 | 21.06840 | -87.05059 | 2710 ft | 129 kts | 18° |
| 2026-04-30 03:21 | 21.07716 | -87.04861 | 2662 ft | 128 kts | 17° |
| 2026-04-30 03:21 | 21.08582 | -87.04648 | 2607 ft | 126 kts | 22° |
| 2026-04-30 03:21 | 21.09396 | -87.04318 | 2559 ft | 125 kts | 27° |
| 2026-04-30 03:21 | 21.10209 | -87.03969 | 2497 ft | 126 kts | 28° |
| 2026-04-30 03:22 | 21.11027 | -87.03622 | 2419 ft | 127 kts | 27° |
| 2026-04-30 03:22 | 21.11841 | -87.03280 | 2347 ft | 128 kts | 27° |
| 2026-04-30 03:22 | 21.12667 | -87.02927 | 2276 ft | 128 kts | 28° |
| 2026-04-30 03:22 | 21.13307 | -87.02361 | 2198 ft | 118 kts | 59° |
| 2026-04-30 03:23 | 21.13625 | -87.01596 | 2116 ft | 112 kts | 98° |
| 2026-04-30 03:23 | 21.13321 | -87.00842 | 2036 ft | 111 kts | 117° |
| 2026-04-30 03:23 | 21.12954 | -87.00128 | 2019 ft | 107 kts | 125° |
| 2026-04-30 03:23 | 21.12535 | -86.99477 | 2014 ft | 105 kts | 123° |
| 2026-04-30 03:24 | 21.12131 | -86.98826 | 2013 ft | 105 kts | 123° |
| 2026-04-30 03:24 | 21.11726 | -86.98179 | 2012 ft | 104 kts | 123° |
| 2026-04-30 03:24 | 21.11324 | -86.97528 | 2012 ft | 105 kts | 123° |
| 2026-04-30 03:24 | 21.10910 | -86.96873 | 1921 ft | 111 kts | 123° |
| 2026-04-30 03:25 | 21.10473 | -86.96168 | 1770 ft | 117 kts | 123° |
| 2026-04-30 03:25 | 21.10026 | -86.95452 | 1620 ft | 113 kts | 123° |
| 2026-04-30 03:25 | 21.09596 | -86.94758 | 1425 ft | 112 kts | 123° |
| 2026-04-30 03:25 | 21.09192 | -86.94056 | 1315 ft | 110 kts | 121° |
| 2026-04-30 03:26 | 21.08785 | -86.93375 | 1229 ft | 106 kts | 126° |
| 2026-04-30 03:26 | 21.08323 | -86.92794 | 1110 ft | 98 kts | 129° |
| 2026-04-30 03:26 | 21.07932 | -86.92217 | 975 ft | 95 kts | 123° |
| 2026-04-30 03:26 | 21.07615 | -86.91638 | 890 ft | 90 kts | 118° |
| 2026-04-30 03:27 | 21.07316 | -86.91010 | 727 ft | 98 kts | 119° |
| 2026-04-30 03:27 | 21.06947 | -86.90425 | 601 ft | 94 kts | 127° |
| 2026-04-30 03:27 | 21.06595 | -86.89847 | 486 ft | 91 kts | 120° |
| 2026-04-30 03:27 | 21.06231 | -86.89290 | 381 ft | 92 kts | 129° |
| 2026-04-30 03:28 | 21.05813 | -86.88738 | 201 ft | 95 kts | 121° |
| 2026-04-30 03:28 | 21.05519 | -86.88199 | 59 ft | 71 kts | 126° |
| 2026-04-30 03:28 | 21.05300 | -86.87853 | 26 ft | 43 kts | 123° |
| 2026-04-30 03:28 | 21.05204 | -86.87712 | 27 ft | 18 kts | 123° |
| 2026-04-30 03:29 | 21.05145 | -86.87604 | 26 ft | 19 kts | 121° |
| 2026-04-30 03:29 | 21.05070 | -86.87497 | 26 ft | 9 kts | 163° |
| 2026-04-30 03:29 | 21.05041 | -86.87551 | 25 ft | 14 kts | 278° |
| 2026-04-30 03:29 | 21.05062 | -86.87661 | 25 ft | 12 kts | 281° |
| 2026-04-30 03:30 | 21.05061 | -86.87684 | 25 ft | 5 kts | 217° |
| 2026-04-30 03:30 | 21.05011 | -86.87630 | 25 ft | 16 kts | 119° |
| 2026-04-30 03:30 | 21.04931 | -86.87482 | 24 ft | 29 kts | 122° |
| 2026-04-30 03:30 | 21.04823 | -86.87303 | 24 ft | 25 kts | 122° |
| 2026-04-30 03:31 | 21.04734 | -86.87157 | 24 ft | 23 kts | 123° |
| 2026-04-30 03:31 | 21.04646 | -86.87016 | 24 ft | 22 kts | 123° |
| 2026-04-30 03:31 | 21.04559 | -86.86882 | 24 ft | 21 kts | 123° |
| 2026-04-30 03:31 | 21.04477 | -86.86748 | 24 ft | 22 kts | 124° |
| 2026-04-30 03:32 | 21.04393 | -86.86612 | 24 ft | 22 kts | 123° |
| 2026-04-30 03:32 | 21.04308 | -86.86478 | 23 ft | 21 kts | 124° |
| 2026-04-30 03:32 | 21.04228 | -86.86361 | 23 ft | 17 kts | 136° |
| 2026-04-30 03:32 | 21.04140 | -86.86304 | 23 ft | 15 kts | 153° |
| 2026-04-30 03:33 | 21.04073 | -86.86235 | 22 ft | 12 kts | 139° |
| 2026-04-30 03:33 | 21.04013 | -86.86234 | 22 ft | 9 kts | 219° |
| 2026-04-30 03:33 | 21.03869 | -86.86337 | 22 ft | 30 kts | 214° |
| 2026-04-30 03:33 | 21.03705 | -86.86452 | 22 ft | 28 kts | 213° |
| 2026-04-30 03:34 | 21.03567 | -86.86556 | 22 ft | 11 kts | 198° |
| 2026-04-30 03:34 | 21.03497 | -86.86516 | 22 ft | 16 kts | 142° |
| 2026-04-30 03:34 | 21.03474 | -86.86487 | 22 ft | 0 kts | 77° |